TAP1086 LPMA-LPPT
Flight info
| Callsign | TAP1086 |
|---|---|
| Flight time | 1h 23m |
| Altitude | 36000 |
| Route | DEGUN DCT NARTA DCT ESUTI |
| Aircraft | E195/M-SDE3GILORVW/S |
Departure
| Time | 2026-05-06 20:24 |
|---|---|
| Airport | Cristiano Ronaldo International Airport (LPMA) |
Arrival
| Time | 2026-05-06 21:47 |
|---|---|
| Airport | Lisbon Humberto Delgado Airport (LPPT) |
| Time | Latitude | Longitude | Altitude | Speed | Heading |
|---|---|---|---|---|---|
| 2026-05-06 19:48 | 32.69286 | -16.77760 | 183 ft | 0 kts | 136° |
| 2026-05-06 20:14 | 32.69288 | -16.77763 | 183 ft | 2 kts | 136° |
| 2026-05-06 20:14 | 32.69299 | -16.77775 | 183 ft | 2 kts | 136° |
| 2026-05-06 20:15 | 32.69311 | -16.77788 | 183 ft | 2 kts | 139° |
| 2026-05-06 20:15 | 32.69324 | -16.77794 | 183 ft | 2 kts | 178° |
| 2026-05-06 20:15 | 32.69339 | -16.77791 | 183 ft | 2 kts | 208° |
| 2026-05-06 20:15 | 32.69346 | -16.77785 | 183 ft | 1 kts | 226° |
| 2026-05-06 20:16 | 32.69350 | -16.77779 | 183 ft | 0 kts | 227° |
| 2026-05-06 20:19 | 32.69350 | -16.77780 | 183 ft | 0 kts | 227° |
| 2026-05-06 20:20 | 32.69343 | -16.77788 | 183 ft | 2 kts | 226° |
| 2026-05-06 20:20 | 32.69319 | -16.77817 | 182 ft | 7 kts | 226° |
| 2026-05-06 20:20 | 32.69288 | -16.77895 | 179 ft | 13 kts | 268° |
| 2026-05-06 20:20 | 32.69288 | -16.78011 | 170 ft | 14 kts | 270° |
| 2026-05-06 20:21 | 32.69222 | -16.78109 | 166 ft | 17 kts | 223° |
| 2026-05-06 20:21 | 32.69137 | -16.78208 | 161 ft | 15 kts | 225° |
| 2026-05-06 20:21 | 32.69054 | -16.78308 | 160 ft | 18 kts | 222° |
| 2026-05-06 20:21 | 32.68964 | -16.78396 | 159 ft | 12 kts | 196° |
| 2026-05-06 20:22 | 32.68891 | -16.78424 | 159 ft | 9 kts | 234° |
| 2026-05-06 20:22 | 32.68889 | -16.78448 | 160 ft | 3 kts | 288° |
| 2026-05-06 20:22 | 32.68906 | -16.78466 | 159 ft | 4 kts | 353° |
| 2026-05-06 20:22 | 32.68937 | -16.78442 | 159 ft | 6 kts | 46° |
| 2026-05-06 20:23 | 32.68952 | -16.78423 | 159 ft | 0 kts | 45° |
| 2026-05-06 20:23 | 32.68954 | -16.78421 | 159 ft | 0 kts | 45° |
| 2026-05-06 20:23 | 32.68960 | -16.78413 | 159 ft | 1 kts | 45° |
| 2026-05-06 20:23 | 32.69094 | -16.78257 | 161 ft | 60 kts | 44° |
| 2026-05-06 20:24 | 32.69544 | -16.77730 | 188 ft | 118 kts | 44° |
| 2026-05-06 20:24 | 32.70248 | -16.76906 | 247 ft | 159 kts | 42° |
| 2026-05-06 20:24 | 32.71039 | -16.76027 | 814 ft | 156 kts | 40° |
| 2026-05-06 20:24 | 32.71612 | -16.74975 | 938 ft | 157 kts | 80° |
| 2026-05-06 20:25 | 32.71677 | -16.73672 | 1148 ft | 160 kts | 84° |
| 2026-05-06 20:25 | 32.71747 | -16.72359 | 1388 ft | 159 kts | 83° |
| 2026-05-06 20:25 | 32.71481 | -16.70984 | 1753 ft | 186 kts | 113° |
| 2026-05-06 20:25 | 32.70900 | -16.69567 | 2375 ft | 197 kts | 114° |
| 2026-05-06 20:26 | 32.70295 | -16.68095 | 3083 ft | 203 kts | 113° |
| 2026-05-06 20:26 | 32.69682 | -16.66583 | 3823 ft | 207 kts | 113° |
| 2026-05-06 20:26 | 32.69048 | -16.65023 | 4533 ft | 214 kts | 112° |
| 2026-05-06 20:26 | 32.68402 | -16.63426 | 5296 ft | 218 kts | 112° |
| 2026-05-06 20:27 | 32.67800 | -16.61788 | 6058 ft | 217 kts | 97° |
| 2026-05-06 20:27 | 32.68025 | -16.60094 | 6707 ft | 212 kts | 54° |
| 2026-05-06 20:27 | 32.69166 | -16.59085 | 7337 ft | 210 kts | 15° |
| 2026-05-06 20:27 | 32.70555 | -16.58575 | 8014 ft | 211 kts | 21° |
| 2026-05-06 20:28 | 32.71856 | -16.57785 | 8669 ft | 212 kts | 29° |
| 2026-05-06 20:28 | 32.73084 | -16.56819 | 9345 ft | 213 kts | 34° |
| 2026-05-06 20:28 | 32.74257 | -16.55751 | 10001 ft | 214 kts | 38° |
| 2026-05-06 20:28 | 32.75400 | -16.54624 | 10637 ft | 216 kts | 40° |
| 2026-05-06 20:29 | 32.76536 | -16.53451 | 11166 ft | 223 kts | 41° |
| 2026-05-06 20:29 | 32.77771 | -16.52139 | 11199 ft | 255 kts | 41° |
| 2026-05-06 20:29 | 32.79170 | -16.50630 | 11218 ft | 287 kts | 40° |
| 2026-05-06 20:29 | 32.80708 | -16.48957 | 11454 ft | 309 kts | 40° |
| 2026-05-06 20:30 | 32.82311 | -16.47204 | 12067 ft | 317 kts | 39° |
| 2026-05-06 20:30 | 32.85570 | -16.43632 | 13573 ft | 321 kts | 38° |
| 2026-05-06 20:30 | 32.87211 | -16.41830 | 14338 ft | 323 kts | 38° |
| 2026-05-06 20:31 | 32.88863 | -16.40015 | 15047 ft | 326 kts | 38° |
| 2026-05-06 20:31 | 32.90533 | -16.38180 | 15718 ft | 330 kts | 38° |
| 2026-05-06 20:31 | 32.92222 | -16.36322 | 16366 ft | 333 kts | 38° |
| 2026-05-06 20:31 | 32.93932 | -16.34441 | 16997 ft | 337 kts | 38° |
| 2026-05-06 20:32 | 32.95656 | -16.32543 | 17629 ft | 340 kts | 38° |
| 2026-05-06 20:32 | 32.97391 | -16.30631 | 18262 ft | 343 kts | 38° |
| 2026-05-06 20:32 | 32.99142 | -16.28701 | 18888 ft | 345 kts | 38° |
| 2026-05-06 20:32 | 33.00907 | -16.26754 | 19517 ft | 348 kts | 38° |
| 2026-05-06 20:33 | 33.02681 | -16.24796 | 20181 ft | 349 kts | 37° |
| 2026-05-06 20:33 | 33.04462 | -16.22830 | 20790 ft | 351 kts | 37° |
| 2026-05-06 20:33 | 33.06250 | -16.20855 | 21421 ft | 352 kts | 37° |
| 2026-05-06 20:33 | 33.08046 | -16.18869 | 22022 ft | 354 kts | 37° |
| 2026-05-06 20:34 | 33.09853 | -16.16870 | 22586 ft | 356 kts | 37° |
| 2026-05-06 20:34 | 33.11671 | -16.14858 | 23183 ft | 358 kts | 36° |
| 2026-05-06 20:34 | 33.13499 | -16.12834 | 23755 ft | 360 kts | 36° |
| 2026-05-06 20:34 | 33.15343 | -16.10791 | 24268 ft | 364 kts | 36° |
| 2026-05-06 20:35 | 33.17205 | -16.08727 | 24779 ft | 368 kts | 36° |
| 2026-05-06 20:35 | 33.19082 | -16.06643 | 25368 ft | 370 kts | 36° |
| 2026-05-06 20:35 | 33.20975 | -16.04544 | 25861 ft | 374 kts | 36° |
| 2026-05-06 20:35 | 33.22882 | -16.02425 | 26367 ft | 377 kts | 36° |
| 2026-05-06 20:36 | 33.24806 | -16.00286 | 26875 ft | 380 kts | 36° |
| 2026-05-06 20:36 | 33.26745 | -15.98130 | 27352 ft | 383 kts | 36° |
| 2026-05-06 20:36 | 33.28705 | -15.95949 | 27833 ft | 387 kts | 36° |
| 2026-05-06 20:36 | 33.30672 | -15.93758 | 28356 ft | 389 kts | 36° |
| 2026-05-06 20:37 | 33.32649 | -15.91554 | 28899 ft | 390 kts | 36° |
| 2026-05-06 20:37 | 33.34634 | -15.89341 | 29394 ft | 392 kts | 36° |
| 2026-05-06 20:37 | 33.36633 | -15.87111 | 29839 ft | 395 kts | 36° |
| 2026-05-06 20:37 | 33.38647 | -15.84863 | 30221 ft | 400 kts | 36° |
| 2026-05-06 20:38 | 33.40681 | -15.82589 | 30630 ft | 403 kts | 36° |
| 2026-05-06 20:38 | 33.42743 | -15.80284 | 31090 ft | 405 kts | 36° |
| 2026-05-06 20:38 | 33.44801 | -15.77981 | 31549 ft | 407 kts | 35° |
| 2026-05-06 20:38 | 33.46868 | -15.75667 | 32028 ft | 408 kts | 36° |
| 2026-05-06 20:39 | 33.48937 | -15.73349 | 32560 ft | 408 kts | 35° |
| 2026-05-06 20:39 | 33.51003 | -15.71031 | 33178 ft | 405 kts | 35° |
| 2026-05-06 20:39 | 33.53044 | -15.68741 | 33803 ft | 401 kts | 35° |
| 2026-05-06 20:39 | 33.55066 | -15.66471 | 34395 ft | 398 kts | 34° |
| 2026-05-06 20:40 | 33.57081 | -15.64208 | 34844 ft | 396 kts | 34° |
| 2026-05-06 20:40 | 33.59088 | -15.61952 | 35188 ft | 397 kts | 34° |
| 2026-05-06 20:40 | 33.61102 | -15.59688 | 35507 ft | 398 kts | 34° |
| 2026-05-06 20:40 | 33.63133 | -15.57401 | 35734 ft | 402 kts | 34° |
| 2026-05-06 20:41 | 33.65171 | -15.55106 | 35997 ft | 403 kts | 34° |
| 2026-05-06 20:41 | 33.69337 | -15.50411 | 36070 ft | 419 kts | 35° |
| 2026-05-06 20:42 | 33.73645 | -15.45544 | 36071 ft | 428 kts | 34° |
| 2026-05-06 20:42 | 33.77982 | -15.40638 | 36073 ft | 427 kts | 35° |
| 2026-05-06 20:43 | 33.82318 | -15.35729 | 36069 ft | 430 kts | 35° |
| 2026-05-06 20:43 | 33.86639 | -15.30827 | 36070 ft | 427 kts | 35° |
| 2026-05-06 20:44 | 33.90960 | -15.25919 | 36066 ft | 426 kts | 35° |
| 2026-05-06 20:44 | 33.95291 | -15.20994 | 36068 ft | 431 kts | 35° |
| 2026-05-06 20:45 | 33.99635 | -15.16045 | 36066 ft | 428 kts | 35° |
| 2026-05-06 20:45 | 34.03960 | -15.11110 | 36060 ft | 429 kts | 35° |
| 2026-05-06 20:46 | 34.08285 | -15.06169 | 36065 ft | 428 kts | 35° |
| 2026-05-06 20:46 | 34.12593 | -15.01240 | 36076 ft | 427 kts | 35° |
| 2026-05-06 20:47 | 34.16903 | -14.96301 | 36071 ft | 429 kts | 35° |
| 2026-05-06 20:47 | 34.21227 | -14.91338 | 36078 ft | 428 kts | 35° |
| 2026-05-06 20:48 | 34.25546 | -14.86375 | 36073 ft | 429 kts | 35° |
| 2026-05-06 20:48 | 34.29856 | -14.81414 | 36073 ft | 429 kts | 35° |
| 2026-05-06 20:49 | 34.34179 | -14.76431 | 36071 ft | 430 kts | 35° |
| 2026-05-06 20:49 | 34.38513 | -14.71427 | 36068 ft | 432 kts | 35° |
| 2026-05-06 20:50 | 34.42850 | -14.66413 | 36064 ft | 430 kts | 35° |
| 2026-05-06 20:50 | 34.47179 | -14.61401 | 36065 ft | 433 kts | 35° |
| 2026-05-06 20:51 | 34.51509 | -14.56378 | 36071 ft | 430 kts | 35° |
| 2026-05-06 20:51 | 34.55826 | -14.51363 | 36080 ft | 430 kts | 35° |
| 2026-05-06 20:52 | 34.60159 | -14.46324 | 36073 ft | 430 kts | 35° |
| 2026-05-06 20:52 | 34.64479 | -14.41291 | 36068 ft | 430 kts | 35° |
| 2026-05-06 20:53 | 34.68807 | -14.36241 | 36075 ft | 432 kts | 35° |
| 2026-05-06 20:53 | 34.73132 | -14.31187 | 36053 ft | 431 kts | 36° |
| 2026-05-06 20:54 | 34.77463 | -14.26119 | 36051 ft | 435 kts | 36° |
| 2026-05-06 20:54 | 34.81807 | -14.21027 | 36050 ft | 434 kts | 35° |
| 2026-05-06 20:55 | 34.86118 | -14.15964 | 36048 ft | 429 kts | 35° |
| 2026-05-06 20:55 | 34.90425 | -14.10903 | 36057 ft | 433 kts | 36° |
| 2026-05-06 20:56 | 34.94736 | -14.05825 | 36058 ft | 433 kts | 36° |
| 2026-05-06 20:56 | 34.99056 | -14.00730 | 36047 ft | 432 kts | 36° |
| 2026-05-06 20:57 | 35.03357 | -13.95650 | 36041 ft | 430 kts | 36° |
| 2026-05-06 20:57 | 35.07648 | -13.90574 | 36040 ft | 432 kts | 36° |
| 2026-05-06 20:58 | 35.11953 | -13.85472 | 36055 ft | 431 kts | 36° |
| 2026-05-06 20:58 | 35.16268 | -13.80352 | 36051 ft | 435 kts | 36° |
| 2026-05-06 20:59 | 35.20600 | -13.75203 | 36055 ft | 433 kts | 36° |
| 2026-05-06 20:59 | 35.24910 | -13.70072 | 36056 ft | 434 kts | 36° |
| 2026-05-06 21:00 | 35.29219 | -13.64934 | 36053 ft | 433 kts | 36° |
| 2026-05-06 21:00 | 35.33535 | -13.59780 | 36052 ft | 433 kts | 36° |
| 2026-05-06 21:01 | 35.37863 | -13.54605 | 36048 ft | 436 kts | 36° |
| 2026-05-06 21:01 | 35.42189 | -13.49422 | 36048 ft | 436 kts | 36° |
| 2026-05-06 21:02 | 35.46503 | -13.44244 | 36049 ft | 432 kts | 36° |
| 2026-05-06 21:02 | 35.50819 | -13.39059 | 36048 ft | 436 kts | 36° |
| 2026-05-06 21:03 | 35.55164 | -13.33829 | 36035 ft | 439 kts | 37° |
| 2026-05-06 21:03 | 35.59523 | -13.28573 | 36040 ft | 439 kts | 37° |
| 2026-05-06 21:04 | 35.63872 | -13.23321 | 36048 ft | 440 kts | 37° |
| 2026-05-06 21:04 | 35.68225 | -13.18057 | 36047 ft | 441 kts | 37° |
| 2026-05-06 21:05 | 35.72576 | -13.12785 | 36046 ft | 439 kts | 37° |
| 2026-05-06 21:05 | 35.76926 | -13.07506 | 36046 ft | 441 kts | 37° |
| 2026-05-06 21:06 | 35.81282 | -13.02211 | 36046 ft | 440 kts | 37° |
| 2026-05-06 21:06 | 35.85631 | -12.96919 | 36031 ft | 442 kts | 37° |
| 2026-05-06 21:07 | 35.90004 | -12.91585 | 36024 ft | 442 kts | 37° |
| 2026-05-06 21:07 | 35.94368 | -12.86256 | 36019 ft | 444 kts | 37° |
| 2026-05-06 21:08 | 35.98732 | -12.80917 | 36013 ft | 441 kts | 37° |
| 2026-05-06 21:08 | 36.03097 | -12.75569 | 36017 ft | 445 kts | 37° |
| 2026-05-06 21:09 | 36.07479 | -12.70190 | 36007 ft | 446 kts | 37° |
| 2026-05-06 21:09 | 36.11862 | -12.64800 | 36021 ft | 446 kts | 37° |
| 2026-05-06 21:10 | 36.16254 | -12.59390 | 36017 ft | 446 kts | 37° |
| 2026-05-06 21:10 | 36.20648 | -12.53971 | 36020 ft | 448 kts | 38° |
| 2026-05-06 21:11 | 36.25035 | -12.48550 | 36015 ft | 448 kts | 37° |
| 2026-05-06 21:11 | 36.29437 | -12.43101 | 36018 ft | 446 kts | 38° |
| 2026-05-06 21:12 | 36.33824 | -12.37662 | 36022 ft | 449 kts | 38° |
| 2026-05-06 21:12 | 36.38225 | -12.32195 | 36013 ft | 447 kts | 38° |
| 2026-05-06 21:13 | 36.42637 | -12.26708 | 36005 ft | 453 kts | 38° |
| 2026-05-06 21:13 | 36.47060 | -12.21195 | 36009 ft | 449 kts | 38° |
| 2026-05-06 21:14 | 36.51474 | -12.15685 | 36009 ft | 451 kts | 38° |
| 2026-05-06 21:14 | 36.55895 | -12.10156 | 36009 ft | 452 kts | 38° |
| 2026-05-06 21:15 | 36.60315 | -12.04619 | 36007 ft | 451 kts | 38° |
| 2026-05-06 21:15 | 36.64739 | -11.99069 | 36012 ft | 453 kts | 38° |
| 2026-05-06 21:16 | 36.69179 | -11.93487 | 36011 ft | 454 kts | 38° |
| 2026-05-06 21:16 | 36.73620 | -11.87896 | 36009 ft | 456 kts | 38° |
| 2026-05-06 21:17 | 36.78068 | -11.82284 | 36017 ft | 458 kts | 39° |
| 2026-05-06 21:17 | 36.82550 | -11.76620 | 36017 ft | 458 kts | 39° |
| 2026-05-06 21:18 | 36.87009 | -11.70977 | 36016 ft | 459 kts | 39° |
| 2026-05-06 21:18 | 36.91494 | -11.65288 | 36007 ft | 460 kts | 39° |
| 2026-05-06 21:19 | 36.95972 | -11.59600 | 36003 ft | 460 kts | 39° |
| 2026-05-06 21:19 | 37.00450 | -11.53902 | 36009 ft | 462 kts | 39° |
| 2026-05-06 21:20 | 37.04931 | -11.48189 | 36007 ft | 459 kts | 39° |
| 2026-05-06 21:20 | 37.09420 | -11.42455 | 36013 ft | 464 kts | 39° |
| 2026-05-06 21:21 | 37.13918 | -11.36701 | 36024 ft | 466 kts | 40° |
| 2026-05-06 21:21 | 37.18455 | -11.30884 | 36011 ft | 464 kts | 40° |
| 2026-05-06 21:22 | 37.22968 | -11.25089 | 36007 ft | 465 kts | 41° |
| 2026-05-06 21:22 | 37.27659 | -11.19576 | 36011 ft | 459 kts | 33° |
| 2026-05-06 21:22 | 37.30137 | -11.17026 | 35840 ft | 465 kts | 35° |
| 2026-05-06 21:23 | 37.32600 | -11.14408 | 35457 ft | 465 kts | 35° |
| 2026-05-06 21:23 | 37.35051 | -11.11780 | 35068 ft | 463 kts | 35° |
| 2026-05-06 21:23 | 37.37503 | -11.09145 | 34709 ft | 467 kts | 35° |
| 2026-05-06 21:23 | 37.39971 | -11.06488 | 34332 ft | 466 kts | 34° |
| 2026-05-06 21:24 | 37.42441 | -11.03826 | 33970 ft | 469 kts | 34° |
| 2026-05-06 21:24 | 37.44912 | -11.01161 | 33551 ft | 469 kts | 34° |
| 2026-05-06 21:24 | 37.47393 | -10.98483 | 33148 ft | 470 kts | 34° |
| 2026-05-06 21:24 | 37.49870 | -10.95806 | 32758 ft | 472 kts | 35° |
| 2026-05-06 21:25 | 37.52349 | -10.93124 | 32351 ft | 471 kts | 35° |
| 2026-05-06 21:25 | 37.54826 | -10.90442 | 31960 ft | 470 kts | 35° |
| 2026-05-06 21:25 | 37.57282 | -10.87779 | 31540 ft | 463 kts | 36° |
| 2026-05-06 21:25 | 37.59713 | -10.85142 | 31131 ft | 458 kts | 35° |
| 2026-05-06 21:26 | 37.62105 | -10.82546 | 30730 ft | 453 kts | 35° |
| 2026-05-06 21:26 | 37.64492 | -10.79954 | 30324 ft | 453 kts | 36° |
| 2026-05-06 21:26 | 37.66870 | -10.77368 | 29938 ft | 451 kts | 36° |
| 2026-05-06 21:26 | 37.69238 | -10.74789 | 29546 ft | 449 kts | 36° |
| 2026-05-06 21:27 | 37.71585 | -10.72233 | 29156 ft | 446 kts | 36° |
| 2026-05-06 21:27 | 37.73928 | -10.69678 | 28765 ft | 444 kts | 37° |
| 2026-05-06 21:27 | 37.76261 | -10.67133 | 28386 ft | 443 kts | 36° |
| 2026-05-06 21:27 | 37.78585 | -10.64594 | 28004 ft | 440 kts | 37° |
| 2026-05-06 21:28 | 37.80891 | -10.62073 | 27621 ft | 438 kts | 37° |
| 2026-05-06 21:28 | 37.83177 | -10.59572 | 27237 ft | 435 kts | 37° |
| 2026-05-06 21:28 | 37.85449 | -10.57085 | 26874 ft | 431 kts | 37° |
| 2026-05-06 21:28 | 37.87708 | -10.54609 | 26485 ft | 429 kts | 37° |
| 2026-05-06 21:29 | 37.89955 | -10.52143 | 26073 ft | 428 kts | 38° |
| 2026-05-06 21:29 | 37.92198 | -10.49684 | 25540 ft | 426 kts | 39° |
| 2026-05-06 21:29 | 37.94433 | -10.47227 | 25158 ft | 427 kts | 39° |
| 2026-05-06 21:29 | 37.96671 | -10.44765 | 24955 ft | 427 kts | 39° |
| 2026-05-06 21:30 | 37.98918 | -10.42292 | 24791 ft | 428 kts | 39° |
| 2026-05-06 21:30 | 38.01157 | -10.39826 | 24389 ft | 426 kts | 39° |
| 2026-05-06 21:30 | 38.03380 | -10.37375 | 23983 ft | 421 kts | 40° |
| 2026-05-06 21:30 | 38.05578 | -10.34950 | 23576 ft | 417 kts | 40° |
| 2026-05-06 21:31 | 38.07756 | -10.32545 | 23162 ft | 413 kts | 40° |
| 2026-05-06 21:31 | 38.09753 | -10.29965 | 22735 ft | 411 kts | 57° |
| 2026-05-06 21:31 | 38.10998 | -10.26722 | 22360 ft | 407 kts | 66° |
| 2026-05-06 21:31 | 38.12290 | -10.23545 | 21954 ft | 405 kts | 62° |
| 2026-05-06 21:32 | 38.13695 | -10.20455 | 21535 ft | 402 kts | 60° |
| 2026-05-06 21:32 | 38.16550 | -10.14414 | 20681 ft | 397 kts | 59° |
| 2026-05-06 21:32 | 38.17971 | -10.11430 | 20256 ft | 394 kts | 59° |
| 2026-05-06 21:33 | 38.19385 | -10.08461 | 19831 ft | 391 kts | 59° |
| 2026-05-06 21:33 | 38.20782 | -10.05526 | 19363 ft | 387 kts | 59° |
| 2026-05-06 21:33 | 38.22153 | -10.02645 | 18735 ft | 377 kts | 59° |
| 2026-05-06 21:33 | 38.23503 | -9.99804 | 17900 ft | 374 kts | 59° |
| 2026-05-06 21:34 | 38.24836 | -9.96995 | 16999 ft | 371 kts | 59° |
| 2026-05-06 21:34 | 38.26157 | -9.94212 | 16105 ft | 367 kts | 59° |
| 2026-05-06 21:34 | 38.27461 | -9.91461 | 15258 ft | 362 kts | 59° |
| 2026-05-06 21:34 | 38.28744 | -9.88752 | 14438 ft | 356 kts | 59° |
| 2026-05-06 21:35 | 38.30008 | -9.86082 | 13626 ft | 351 kts | 59° |
| 2026-05-06 21:35 | 38.31253 | -9.83447 | 12871 ft | 348 kts | 59° |
| 2026-05-06 21:35 | 38.32492 | -9.80826 | 12280 ft | 343 kts | 59° |
| 2026-05-06 21:35 | 38.33683 | -9.78302 | 12200 ft | 322 kts | 59° |
| 2026-05-06 21:36 | 38.34807 | -9.75921 | 12069 ft | 306 kts | 59° |
| 2026-05-06 21:36 | 38.35885 | -9.73634 | 11745 ft | 299 kts | 59° |
| 2026-05-06 21:36 | 38.36950 | -9.71371 | 11283 ft | 298 kts | 59° |
| 2026-05-06 21:36 | 38.38012 | -9.69116 | 10787 ft | 298 kts | 59° |
| 2026-05-06 21:37 | 38.39072 | -9.66864 | 10311 ft | 296 kts | 59° |
| 2026-05-06 21:37 | 38.40127 | -9.64618 | 9882 ft | 293 kts | 59° |
| 2026-05-06 21:37 | 38.41159 | -9.62422 | 9597 ft | 285 kts | 59° |
| 2026-05-06 21:37 | 38.42162 | -9.60285 | 9278 ft | 279 kts | 60° |
| 2026-05-06 21:38 | 38.43150 | -9.58180 | 8897 ft | 276 kts | 60° |
| 2026-05-06 21:38 | 38.44129 | -9.56092 | 8519 ft | 273 kts | 60° |
| 2026-05-06 21:38 | 38.45088 | -9.54045 | 8253 ft | 265 kts | 60° |
| 2026-05-06 21:38 | 38.46023 | -9.52047 | 7955 ft | 260 kts | 60° |
| 2026-05-06 21:39 | 38.46946 | -9.50075 | 7607 ft | 258 kts | 60° |
| 2026-05-06 21:39 | 38.47860 | -9.48120 | 7232 ft | 257 kts | 60° |
| 2026-05-06 21:39 | 38.48770 | -9.46172 | 6848 ft | 256 kts | 60° |
| 2026-05-06 21:39 | 38.49678 | -9.44229 | 6472 ft | 255 kts | 59° |
| 2026-05-06 21:40 | 38.50582 | -9.42291 | 6103 ft | 253 kts | 59° |
| 2026-05-06 21:40 | 38.51479 | -9.40368 | 5734 ft | 252 kts | 59° |
| 2026-05-06 21:40 | 38.52373 | -9.38450 | 5365 ft | 251 kts | 59° |
| 2026-05-06 21:40 | 38.53261 | -9.36545 | 4998 ft | 250 kts | 59° |
| 2026-05-06 21:41 | 38.54146 | -9.34645 | 4634 ft | 248 kts | 59° |
| 2026-05-06 21:41 | 38.55017 | -9.32772 | 4401 ft | 241 kts | 59° |
| 2026-05-06 21:41 | 38.55862 | -9.30953 | 4165 ft | 236 kts | 58° |
| 2026-05-06 21:41 | 38.56701 | -9.29151 | 4008 ft | 234 kts | 58° |
| 2026-05-06 21:42 | 38.57513 | -9.27404 | 4003 ft | 219 kts | 57° |
| 2026-05-06 21:42 | 38.58255 | -9.25805 | 4048 ft | 198 kts | 57° |
| 2026-05-06 21:42 | 38.58942 | -9.24333 | 3872 ft | 189 kts | 53° |
| 2026-05-06 21:42 | 38.59968 | -9.23339 | 3453 ft | 188 kts | 22° |
| 2026-05-06 21:43 | 38.61173 | -9.22678 | 3088 ft | 189 kts | 21° |
| 2026-05-06 21:43 | 38.62342 | -9.22044 | 3062 ft | 175 kts | 21° |
| 2026-05-06 21:43 | 38.63467 | -9.21403 | 3022 ft | 175 kts | 21° |
| 2026-05-06 21:43 | 38.64596 | -9.20781 | 2932 ft | 177 kts | 21° |
| 2026-05-06 21:44 | 38.65674 | -9.20201 | 2701 ft | 158 kts | 20° |
| 2026-05-06 21:44 | 38.66644 | -9.19696 | 2484 ft | 144 kts | 19° |
| 2026-05-06 21:44 | 38.67534 | -9.19220 | 2316 ft | 143 kts | 19° |
| 2026-05-06 21:44 | 38.68465 | -9.18727 | 2148 ft | 145 kts | 19° |
| 2026-05-06 21:45 | 38.69380 | -9.18239 | 1967 ft | 137 kts | 19° |
| 2026-05-06 21:45 | 38.70253 | -9.17777 | 1767 ft | 134 kts | 19° |
| 2026-05-06 21:45 | 38.71118 | -9.17316 | 1583 ft | 134 kts | 18° |
| 2026-05-06 21:45 | 38.71984 | -9.16858 | 1409 ft | 134 kts | 19° |
| 2026-05-06 21:46 | 38.72846 | -9.16400 | 1220 ft | 132 kts | 19° |
| 2026-05-06 21:46 | 38.73684 | -9.15952 | 1043 ft | 129 kts | 18° |
| 2026-05-06 21:46 | 38.74515 | -9.15512 | 868 ft | 129 kts | 19° |
| 2026-05-06 21:46 | 38.75346 | -9.15070 | 697 ft | 129 kts | 18° |
| 2026-05-06 21:47 | 38.76178 | -9.14633 | 545 ft | 129 kts | 19° |
| 2026-05-06 21:47 | 38.77017 | -9.14187 | 397 ft | 128 kts | 18° |
| 2026-05-06 21:47 | 38.77747 | -9.13797 | 382 ft | 94 kts | 21° |
| 2026-05-06 21:47 | 38.78206 | -9.13548 | 382 ft | 39 kts | 22° |
| 2026-05-06 21:48 | 38.78346 | -9.13385 | 382 ft | 19 kts | 45° |
| 2026-05-06 21:48 | 38.78361 | -9.13272 | 382 ft | 12 kts | 139° |
| 2026-05-06 21:48 | 38.78319 | -9.13265 | 382 ft | 6 kts | 204° |
| 2026-05-06 21:48 | 38.78272 | -9.13286 | 382 ft | 8 kts | 201° |
| 2026-05-06 21:49 | 38.78205 | -9.13323 | 381 ft | 12 kts | 203° |
| 2026-05-06 21:49 | 38.78109 | -9.13375 | 381 ft | 16 kts | 202° |
| 2026-05-06 21:49 | 38.77999 | -9.13408 | 382 ft | 16 kts | 169° |
| 2026-05-06 21:49 | 38.77880 | -9.13376 | 382 ft | 18 kts | 168° |
| 2026-05-06 21:50 | 38.77754 | -9.13344 | 382 ft | 19 kts | 168° |
| 2026-05-06 21:50 | 38.77619 | -9.13319 | 381 ft | 20 kts | 180° |
| 2026-05-06 21:50 | 38.77477 | -9.13290 | 382 ft | 21 kts | 168° |
| 2026-05-06 21:50 | 38.77328 | -9.13255 | 381 ft | 22 kts | 173° |
| 2026-05-06 21:51 | 38.77192 | -9.13221 | 382 ft | 12 kts | 168° |
| 2026-05-06 21:51 | 38.77106 | -9.13198 | 382 ft | 13 kts | 165° |
| 2026-05-06 21:51 | 38.77010 | -9.13171 | 382 ft | 14 kts | 169° |
| 2026-05-06 21:51 | 38.76902 | -9.13141 | 381 ft | 16 kts | 165° |
| 2026-05-06 21:52 | 38.76806 | -9.13117 | 382 ft | 10 kts | 170° |
| 2026-05-06 21:52 | 38.76771 | -9.13109 | 382 ft | 5 kts | 170° |
| 2026-05-06 21:52 | 38.76750 | -9.13073 | 381 ft | 6 kts | 79° |
| 2026-05-06 21:52 | 38.76757 | -9.13027 | 382 ft | 3 kts | 78° |
| 2026-05-06 21:53 | 38.76759 | -9.13016 | 382 ft | 0 kts | 78° |
| 2026-05-06 21:53 | 38.76759 | -9.13015 | 382 ft | 0 kts | 78° |